Time;durP1;ratioP1;P1;durP2;ratioP2;P2;SDS_P1;SDS_P2;PMS_P1;PMS_P2;Temp;Humidity;BMP_temperature;BMP_pressure;BME280_temperature;BME280_humidity;BME280_pressure;Samples;Min_cycle;Max_cycle;Signal;HPM_P1;HPM_P2
2023/09/04 00:01:39;;;;;;;4.50;3.08;;;19.20;99.90;;;;;;5096493;28;20020;-83
2023/09/04 00:04:06;;;;;;;3.85;2.92;;;19.10;99.90;;;;;;5097888;28;20020;-83
2023/09/04 00:06:32;;;;;;;3.97;2.92;;;19.20;99.90;;;;;;5096237;28;20019;-84
2023/09/04 00:08:59;;;;;;;4.95;3.10;;;19.10;99.90;;;;;;5080092;28;20487;-84
2023/09/04 00:11:28;;;;;;;4.65;2.90;;;19.10;99.90;;;;;;5097260;28;20028;-83
2023/09/04 00:13:54;;;;;;;3.55;2.50;;;19.10;99.90;;;;;;5097162;28;20035;-83
2023/09/04 00:16:19;;;;;;;3.60;2.85;;;19.00;99.90;;;;;;5079275;28;20024;-85
2023/09/04 00:18:45;;;;;;;3.70;2.92;;;19.00;99.90;;;;;;5079678;28;20027;-83
2023/09/04 00:21:11;;;;;;;4.63;2.50;;;18.90;99.90;;;;;;5096601;28;20027;-84
2023/09/04 00:23:36;;;;;;;5.10;2.95;;;18.90;99.90;;;;;;5079190;28;20035;-84
2023/09/04 00:26:02;;;;;;;4.05;2.92;;;18.90;99.90;;;;;;5097397;28;20107;-83
2023/09/04 00:28:28;;;;;;;4.07;2.85;;;18.90;99.90;;;;;;5096221;28;20027;-84
2023/09/04 00:30:54;;;;;;;3.70;2.63;;;18.90;99.90;;;;;;5096947;28;20453;-83
2023/09/04 00:33:19;;;;;;;3.35;2.65;;;19.00;99.90;;;;;;5095925;28;20028;-94
2023/09/04 00:35:45;;;;;;;5.13;3.10;;;18.90;99.90;;;;;;5096473;28;20357;-84
2023/09/04 00:38:11;;;;;;;5.53;2.63;;;18.90;99.90;;;;;;5096300;28;20475;-84
2023/09/04 00:40:36;;;;;;;3.40;2.55;;;18.90;99.90;;;;;;5095893;28;20365;-82
2023/09/04 00:43:02;;;;;;;8.55;2.90;;;18.90;99.90;;;;;;5096388;28;20035;-83
2023/09/04 00:45:28;;;;;;;4.05;2.67;;;18.80;99.90;;;;;;5096004;28;20077;-83
2023/09/04 00:47:54;;;;;;;4.18;3.00;;;18.70;99.90;;;;;;5097393;28;20027;-83
2023/09/04 00:50:23;;;;;;;4.20;2.90;;;18.70;99.90;;;;;;5095894;28;20048;-83
2023/09/04 00:52:56;;;;;;;3.47;2.70;;;18.70;99.90;;;;;;5079528;28;20109;-83
2023/09/04 00:55:22;;;;;;;3.80;2.85;;;18.70;99.90;;;;;;5095707;28;20020;-84
2023/09/04 00:57:48;;;;;;;4.97;2.80;;;18.70;99.90;;;;;;5078938;28;20094;-84
2023/09/04 01:00:14;;;;;;;3.92;3.10;;;18.70;99.90;;;;;;5095734;28;20020;-82
2023/09/04 01:02:40;;;;;;;6.30;2.80;;;18.70;99.90;;;;;;5096632;28;20024;-84
2023/09/04 01:05:07;;;;;;;3.97;2.90;;;18.70;99.90;;;;;;5096039;28;20518;-83
2023/09/04 01:07:34;;;;;;;3.97;2.85;;;18.70;99.90;;;;;;5096397;28;20069;-82
2023/09/04 01:10:03;;;;;;;4.80;2.58;;;18.60;99.90;;;;;;5079206;28;20031;-83
2023/09/04 01:12:54;;;;;;;5.85;3.92;;;18.60;99.90;;;;;;5095940;28;20035;-82
2023/09/04 01:15:20;;;;;;;6.13;3.58;;;18.50;99.90;;;;;;5079004;28;20447;-82
2023/09/04 01:17:48;;;;;;;4.70;3.45;;;18.50;99.90;;;;;;5096045;28;20050;-82
2023/09/04 01:20:28;;;;;;;4.03;2.88;;;18.50;99.90;;;;;;5095870;28;20464;-81
2023/09/04 01:22:55;;;;;;;3.58;2.75;;;18.50;99.90;;;;;;5096727;28;20032;-83
2023/09/04 01:25:30;;;;;;;3.95;2.90;;;18.40;99.90;;;;;;5096653;28;20077;-82
2023/09/04 01:28:20;;;;;;;10.35;3.05;;;18.30;99.90;;;;;;5078877;28;20445;-82
2023/09/04 01:31:09;;;;;;;3.33;2.85;;;18.30;99.90;;;;;;5096525;28;20117;-83
2023/09/04 01:33:49;;;;;;;6.93;2.88;;;18.30;99.90;;;;;;5078351;28;20047;-82
2023/09/04 01:36:19;;;;;;;4.38;3.00;;;18.30;99.90;;;;;;5078438;28;20024;-82
2023/09/04 01:38:48;;;;;;;3.97;3.00;;;18.20;99.90;;;;;;5078225;28;20064;-82
2023/09/04 01:41:13;;;;;;;3.90;3.03;;;18.20;99.90;;;;;;5096156;28;20056;-83
2023/09/04 01:43:39;;;;;;;3.72;2.65;;;18.30;99.90;;;;;;5094720;28;20024;-83
2023/09/04 01:46:05;;;;;;;4.75;2.45;;;18.20;99.90;;;;;;5095369;28;20030;-82
2023/09/04 01:48:31;;;;;;;4.63;3.22;;;18.20;99.90;;;;;;5077561;28;20109;-81
2023/09/04 01:50:56;;;;;;;5.05;2.83;;;18.10;99.90;;;;;;5095330;28;20027;-83
2023/09/04 01:53:22;;;;;;;4.32;3.05;;;18.00;99.90;;;;;;5095361;28;20073;-82
2023/09/04 01:55:48;;;;;;;4.47;2.92;;;18.00;99.90;;;;;;5095478;28;20026;-82
2023/09/04 01:58:13;;;;;;;4.07;2.83;;;18.00;99.90;;;;;;5096537;28;20094;-82
2023/09/04 02:00:39;;;;;;;4.68;2.47;;;18.10;99.90;;;;;;5094666;28;20031;-83
2023/09/04 02:03:04;;;;;;;3.25;2.53;;;18.00;99.90;;;;;;5096196;28;20507;-82
2023/09/04 02:05:30;;;;;;;6.03;3.08;;;18.10;99.90;;;;;;5094396;28;20019;-83
2023/09/04 02:07:55;;;;;;;5.97;2.65;;;18.00;99.90;;;;;;5094727;28;20035;-82
2023/09/04 02:10:26;;;;;;;5.20;2.70;;;18.10;99.90;;;;;;5094376;28;20024;-82
2023/09/04 02:12:53;;;;;;;4.97;2.67;;;18.10;99.90;;;;;;5078257;28;20119;-82
2023/09/04 02:15:18;;;;;;;4.00;2.83;;;18.00;99.90;;;;;;5094787;28;20024;-82
2023/09/04 02:17:44;;;;;;;4.28;2.40;;;18.00;99.90;;;;;;5094721;28;20064;-82
2023/09/04 02:20:10;;;;;;;5.82;2.97;;;18.00;99.90;;;;;;5077874;28;20023;-82
2023/09/04 02:22:35;;;;;;;4.15;3.15;;;18.00;99.90;;;;;;5095222;28;20039;-82
2023/09/04 02:25:01;;;;;;;3.88;2.83;;;18.00;99.90;;;;;;5094485;28;20024;-82
2023/09/04 02:27:27;;;;;;;3.65;2.63;;;18.00;99.90;;;;;;5095494;28;20028;-89
2023/09/04 02:29:52;;;;;;;3.88;2.78;;;18.00;99.90;;;;;;5095974;28;20020;-82
2023/09/04 02:32:18;;;;;;;4.82;2.78;;;18.00;99.90;;;;;;5095575;28;20063;-82
2023/09/04 02:34:43;;;;;;;3.42;2.80;;;17.90;99.90;;;;;;5094092;28;20455;-82
2023/09/04 02:37:09;;;;;;;4.43;2.50;;;17.80;99.90;;;;;;5095565;28;20015;-81
2023/09/04 02:39:36;;;;;;;3.75;2.60;;;17.80;99.90;;;;;;5093873;28;20050;-82
2023/09/04 02:42:01;;;;;;;3.42;2.45;;;17.70;99.90;;;;;;5094294;28;20028;-82
2023/09/04 02:44:29;;;;;;;3.90;2.88;;;17.70;99.90;;;;;;5095112;28;20471;-94
2023/09/04 02:46:54;;;;;;;4.13;2.80;;;17.80;99.90;;;;;;5094805;28;20016;-81
2023/09/04 02:49:20;;;;;;;5.15;3.20;;;17.80;99.90;;;;;;5094766;28;20082;-82
2023/09/04 02:51:45;;;;;;;3.85;2.75;;;17.80;99.90;;;;;;5093527;28;20016;-82
2023/09/04 02:54:11;;;;;;;3.53;2.55;;;17.70;99.90;;;;;;5093895;28;20059;-82
2023/09/04 02:56:37;;;;;;;5.10;2.70;;;17.80;99.90;;;;;;5094835;28;20020;-83
2023/09/04 02:59:02;;;;;;;3.45;2.55;;;17.70;99.90;;;;;;5077108;28;20337;-82
2023/09/04 03:01:28;;;;;;;5.07;2.60;;;17.70;99.90;;;;;;5095216;28;20020;-92
2023/09/04 03:03:54;;;;;;;3.42;2.42;;;17.70;99.90;;;;;;5094346;28;20030;-82
2023/09/04 03:06:19;;;;;;;3.88;2.30;;;17.60;99.90;;;;;;5094755;28;20028;-82
2023/09/04 03:08:45;;;;;;;5.82;2.90;;;17.50;99.90;;;;;;5093529;28;20478;-81
2023/09/04 03:11:11;;;;;;;6.97;2.53;;;17.60;99.90;;;;;;5094667;28;20433;-82
2023/09/04 03:13:37;;;;;;;4.65;2.70;;;17.50;99.90;;;;;;5093380;28;20032;-82
2023/09/04 03:16:05;;;;;;;3.33;2.47;;;17.50;99.90;;;;;;5094589;28;20030;-82
2023/09/04 03:18:34;;;;;;;3.47;2.33;;;17.50;99.90;;;;;;5076369;28;20046;-83
2023/09/04 03:21:02;;;;;;;3.00;2.40;;;17.50;99.90;;;;;;5076695;28;20107;-82
2023/09/04 03:23:28;;;;;;;3.30;2.53;;;17.50;99.90;;;;;;5092551;28;20032;-82
2023/09/04 03:25:55;;;;;;;4.40;2.83;;;17.40;99.90;;;;;;5093345;28;20064;-82
2023/09/04 03:28:20;;;;;;;2.85;2.40;;;17.40;99.90;;;;;;5094750;28;20138;-82
2023/09/04 03:30:46;;;;;;;3.00;2.35;;;17.40;99.90;;;;;;5093295;28;20074;-82
2023/09/04 03:33:11;;;;;;;3.53;2.47;;;17.50;99.90;;;;;;5093449;28;20034;-82
2023/09/04 03:35:37;;;;;;;3.50;2.42;;;17.40;99.90;;;;;;5092686;28;20458;-82
2023/09/04 03:38:03;;;;;;;4.18;2.60;;;17.50;99.90;;;;;;5093252;28;20024;-82
2023/09/04 03:40:29;;;;;;;5.22;2.80;;;17.40;99.90;;;;;;5093400;28;20070;-82
2023/09/04 03:42:55;;;;;;;3.30;2.55;;;17.40;99.90;;;;;;5092985;28;20028;-82
2023/09/04 03:45:21;;;;;;;3.70;2.63;;;17.40;99.90;;;;;;5093314;28;20023;-82
2023/09/04 03:47:48;;;;;;;3.95;2.42;;;17.40;99.90;;;;;;5076140;28;20031;-82
2023/09/04 03:50:14;;;;;;;3.95;3.08;;;17.40;99.90;;;;;;5094636;28;20115;-82
2023/09/04 03:52:40;;;;;;;4.85;2.70;;;17.30;99.90;;;;;;5093666;28;20123;-82
2023/09/04 03:55:07;;;;;;;3.88;2.42;;;17.30;99.90;;;;;;5076565;28;20111;-82
2023/09/04 03:57:35;;;;;;;3.72;2.60;;;17.30;99.90;;;;;;5093677;28;20091;-82
2023/09/04 04:00:01;;;;;;;4.78;3.03;;;17.40;99.90;;;;;;5093383;28;20111;-82
2023/09/04 04:02:27;;;;;;;6.50;3.03;;;17.30;99.90;;;;;;5094150;28;20024;-82
2023/09/04 04:04:52;;;;;;;4.20;2.70;;;17.30;99.90;;;;;;5076026;28;20354;-82
2023/09/04 04:07:18;;;;;;;5.07;2.83;;;17.30;99.90;;;;;;5093089;28;20124;-82
2023/09/04 04:09:44;;;;;;;5.28;2.75;;;17.30;99.90;;;;;;5092367;28;20130;-82
2023/09/04 04:12:10;;;;;;;3.72;2.30;;;17.30;99.90;;;;;;5092625;28;20032;-82
2023/09/04 04:14:36;;;;;;;3.42;2.35;;;17.30;99.90;;;;;;5076077;28;20024;-82
2023/09/04 04:17:02;;;;;;;3.75;2.80;;;17.30;99.90;;;;;;5093842;28;20016;-82
2023/09/04 04:19:28;;;;;;;5.22;2.80;;;17.30;99.90;;;;;;5093176;28;20028;-81
2023/09/04 04:21:53;;;;;;;4.93;2.45;;;17.20;99.90;;;;;;5093477;28;20508;-82
2023/09/04 04:24:20;;;;;;;3.78;2.45;;;17.20;99.90;;;;;;5094012;28;20063;-82
2023/09/04 04:26:46;;;;;;;3.75;3.03;;;17.20;99.90;;;;;;5093623;28;20019;-82
2023/09/04 04:29:11;;;;;;;3.80;2.60;;;17.20;99.90;;;;;;5094092;28;20021;-82
2023/09/04 04:31:37;;;;;;;7.75;3.00;;;17.20;99.90;;;;;;5092681;28;20020;-82
2023/09/04 04:34:03;;;;;;;5.00;2.50;;;17.20;99.90;;;;;;5076633;28;20091;-81
2023/09/04 04:36:30;;;;;;;4.90;2.78;;;17.20;99.90;;;;;;5096500;28;20051;-82
2023/09/04 04:38:55;;;;;;;2.92;2.33;;;17.20;99.90;;;;;;5097146;28;20080;-82
2023/09/04 04:41:21;;;;;;;6.18;3.22;;;17.20;99.90;;;;;;5097578;28;20078;-82
2023/09/04 04:43:47;;;;;;;4.32;2.42;;;17.10;99.90;;;;;;5079539;28;20118;-81
2023/09/04 04:46:15;;;;;;;3.65;2.75;;;17.10;99.90;;;;;;5097581;28;20024;-82
2023/09/04 04:48:40;;;;;;;5.90;2.40;;;17.10;99.90;;;;;;5095396;28;20047;-81
2023/09/04 04:51:07;;;;;;;3.88;2.78;;;17.10;99.90;;;;;;5079326;28;20072;-81
2023/09/04 04:53:33;;;;;;;4.90;3.00;;;17.10;99.90;;;;;;5079729;28;20032;-81
2023/09/04 04:55:59;;;;;;;3.85;2.60;;;17.10;99.90;;;;;;5096286;28;20020;-81
2023/09/04 04:58:25;;;;;;;5.22;2.50;;;17.10;99.90;;;;;;5096831;28;20047;-81
2023/09/04 05:00:51;;;;;;;4.10;2.78;;;17.00;99.90;;;;;;5096359;28;20440;-82
2023/09/04 05:03:16;;;;;;;5.75;2.92;;;17.10;99.90;;;;;;5096776;28;20027;-81
2023/09/04 05:05:46;;;;;;;5.93;3.10;;;17.00;99.90;;;;;;5096085;28;20024;-82
2023/09/04 05:08:11;;;;;;;3.40;2.42;;;17.00;99.90;;;;;;5079425;28;20052;-81
2023/09/04 05:10:37;;;;;;;4.60;2.70;;;17.00;99.90;;;;;;5079104;28;20051;-82
2023/09/04 05:13:03;;;;;;;3.40;2.75;;;17.00;99.90;;;;;;5097096;28;20035;-81
2023/09/04 05:15:29;;;;;;;3.53;2.67;;;17.00;99.90;;;;;;5079228;28;20027;-81
2023/09/04 05:17:55;;;;;;;3.42;2.53;;;17.00;99.90;;;;;;5077174;28;20046;-81
2023/09/04 05:20:21;;;;;;;4.03;2.83;;;17.10;99.90;;;;;;5059392;28;20107;-81
2023/09/04 05:22:46;;;;;;;3.78;2.55;;;17.10;99.90;;;;;;5059039;28;20111;-82
2023/09/04 05:25:12;;;;;;;4.75;2.60;;;17.10;99.90;;;;;;5059069;28;20029;-82
2023/09/04 05:27:38;;;;;;;5.45;2.55;;;17.00;99.90;;;;;;5059247;28;20024;-83
2023/09/04 05:30:04;;;;;;;5.15;2.75;;;17.10;99.90;;;;;;5076537;28;20027;-82
2023/09/04 05:32:30;;;;;;;4.55;2.75;;;17.10;99.90;;;;;;5076937;28;20030;-81
2023/09/04 05:34:56;;;;;;;3.65;2.90;;;17.10;99.90;;;;;;5076622;28;20016;-81
2023/09/04 05:37:22;;;;;;;8.15;2.78;;;17.10;99.90;;;;;;5059184;28;20024;-81
2023/09/04 05:39:48;;;;;;;10.60;2.95;;;17.10;99.90;;;;;;5057880;28;20094;-82
2023/09/04 05:42:14;;;;;;;3.60;2.80;;;17.10;99.90;;;;;;5058258;28;20106;-82
2023/09/04 05:44:40;;;;;;;3.60;2.42;;;17.20;99.90;;;;;;5075598;28;20460;-82
2023/09/04 05:47:06;;;;;;;4.57;2.58;;;17.20;99.90;;;;;;5057508;28;20017;-82
2023/09/04 05:49:32;;;;;;;5.30;2.70;;;17.20;99.90;;;;;;5075699;28;20045;-81
2023/09/04 05:51:57;;;;;;;3.08;2.20;;;17.20;99.90;;;;;;5057445;28;20017;-82
2023/09/04 05:54:23;;;;;;;3.72;2.63;;;17.20;99.90;;;;;;5075780;28;20024;-81
2023/09/04 05:56:49;;;;;;;3.88;2.60;;;17.30;99.90;;;;;;5057860;28;20039;-82
2023/09/04 05:59:15;;;;;;;4.97;2.80;;;17.30;99.90;;;;;;5057504;28;20030;-82
2023/09/04 06:01:41;;;;;;;5.55;2.80;;;17.20;99.90;;;;;;5057224;28;20049;-83
2023/09/04 06:04:06;;;;;;;6.65;2.70;;;17.20;99.90;;;;;;5057892;28;20374;-81
2023/09/04 06:06:32;;;;;;;4.70;3.00;;;17.20;99.90;;;;;;5057769;28;20021;-80
2023/09/04 06:08:57;;;;;;;5.15;2.50;;;17.30;99.90;;;;;;5074581;28;20024;-82
2023/09/04 06:11:23;;;;;;;4.35;2.83;;;17.40;99.90;;;;;;5075143;28;20036;-81
2023/09/04 06:13:49;;;;;;;3.70;3.03;;;17.40;99.90;;;;;;5057111;28;20131;-82
2023/09/04 06:16:19;;;;;;;5.03;2.63;;;17.40;99.90;;;;;;5057702;28;20024;-82
2023/09/04 06:18:44;;;;;;;4.90;2.97;;;17.40;99.90;;;;;;5057077;28;20020;-82
2023/09/04 06:21:10;;;;;;;4.22;2.60;;;17.50;99.90;;;;;;5057382;28;20027;-82
2023/09/04 06:23:35;;;;;;;3.45;2.58;;;17.50;99.90;;;;;;5057600;28;20025;-82
2023/09/04 06:26:02;;;;;;;5.43;2.72;;;17.50;99.90;;;;;;5056881;28;20025;-82
2023/09/04 06:28:28;;;;;;;3.75;2.40;;;17.60;99.90;;;;;;5057298;28;20178;-82
2023/09/04 06:30:55;;;;;;;5.85;2.83;;;17.60;99.90;;;;;;5056537;28;20031;-82
2023/09/04 06:33:21;;;;;;;3.72;2.40;;;17.60;99.90;;;;;;5057441;28;20346;-81
2023/09/04 06:35:47;;;;;;;5.22;2.92;;;17.60;99.90;;;;;;5056961;28;20028;-80
2023/09/04 06:38:14;;;;;;;3.58;2.65;;;17.60;99.90;;;;;;5075626;28;20032;-83
2023/09/04 06:40:40;;;;;;;4.85;2.65;;;17.70;99.90;;;;;;5057781;28;20384;-82
2023/09/04 06:43:05;;;;;;;4.15;2.20;;;17.70;99.90;;;;;;5074463;28;20532;-82
2023/09/04 06:45:31;;;;;;;3.13;2.40;;;17.70;99.90;;;;;;5074506;28;20052;-82
2023/09/04 06:47:57;;;;;;;4.07;2.70;;;17.70;99.90;;;;;;5056345;28;20024;-82
2023/09/04 06:50:22;;;;;;;4.07;2.72;;;17.80;99.90;;;;;;5075088;28;20045;-82
2023/09/04 06:52:48;;;;;;;3.45;2.50;;;17.80;99.90;;;;;;5073605;28;20033;-83
2023/09/04 06:55:13;;;;;;;5.20;2.90;;;17.80;99.90;;;;;;5056397;28;20054;-82
2023/09/04 06:57:39;;;;;;;6.00;2.60;;;17.90;99.90;;;;;;5056774;28;20021;-82
2023/09/04 07:00:07;;;;;;;4.50;2.67;;;17.90;99.90;;;;;;5074164;28;20021;-82
2023/09/04 07:02:33;;;;;;;3.83;2.67;;;18.00;99.90;;;;;;5056889;28;20033;-82
2023/09/04 07:04:58;;;;;;;3.60;2.70;;;18.00;99.90;;;;;;5056025;28;20028;-82
2023/09/04 07:07:24;;;;;;;3.78;2.75;;;18.10;99.90;;;;;;5056934;28;20043;-82
2023/09/04 07:09:50;;;;;;;4.05;2.53;;;18.10;99.90;;;;;;5073167;28;20044;-83
2023/09/04 07:12:15;;;;;;;4.43;2.55;;;18.10;99.90;;;;;;5081681;28;20067;-82
2023/09/04 07:14:41;;;;;;;5.47;3.35;;;18.20;99.90;;;;;;5082598;28;20020;-82
2023/09/04 07:17:06;;;;;;;2.90;2.33;;;18.20;99.90;;;;;;5082636;28;20453;-82
2023/09/04 07:19:32;;;;;;;4.80;2.78;;;18.30;99.90;;;;;;5071081;28;20457;-83
2023/09/04 07:21:57;;;;;;;3.10;2.40;;;18.30;99.90;;;;;;5084890;28;20032;-82
2023/09/04 07:24:23;;;;;;;4.30;2.53;;;18.30;99.90;;;;;;5083082;28;20028;-83
2023/09/04 07:26:49;;;;;;;3.60;2.47;;;18.40;99.90;;;;;;5084168;28;20057;-84
2023/09/04 07:29:17;;;;;;;3.50;2.35;;;18.40;99.90;;;;;;5082515;28;20028;-82
2023/09/04 07:31:42;;;;;;;4.03;2.60;;;18.50;99.90;;;;;;5070164;28;20028;-83
2023/09/04 07:34:08;;;;;;;3.13;2.40;;;18.50;99.90;;;;;;5081028;28;20041;-82
2023/09/04 07:36:34;;;;;;;6.22;2.80;;;18.60;99.90;;;;;;5064086;28;20035;-82
2023/09/04 07:38:59;;;;;;;3.58;2.65;;;18.70;99.90;;;;;;5079029;28;20020;-82
2023/09/04 07:41:25;;;;;;;4.72;2.65;;;18.70;99.90;;;;;;5072108;28;20066;-82
2023/09/04 07:43:51;;;;;;;4.85;2.70;;;18.70;99.90;;;;;;5066388;28;20099;-82
2023/09/04 07:46:17;;;;;;;4.40;2.50;;;18.80;99.90;;;;;;5061258;28;20039;-84
2023/09/04 07:48:43;;;;;;;4.07;2.80;;;18.80;99.90;;;;;;5052925;28;20040;-83
2023/09/04 07:51:09;;;;;;;3.47;2.83;;;18.90;99.90;;;;;;5064110;28;20050;-82
2023/09/04 07:53:34;;;;;;;3.85;2.45;;;18.90;99.90;;;;;;5064206;28;20067;-82
2023/09/04 07:56:00;;;;;;;4.00;2.92;;;19.00;99.90;;;;;;5081152;28;20052;-82
2023/09/04 07:58:26;;;;;;;4.57;2.72;;;19.00;99.90;;;;;;5082354;28;20031;-82
2023/09/04 08:00:52;;;;;;;3.97;2.65;;;19.10;99.90;;;;;;5068269;28;20473;-82
2023/09/04 08:03:18;;;;;;;3.85;2.70;;;19.10;99.90;;;;;;5087427;28;20020;-84
2023/09/04 08:05:44;;;;;;;4.22;2.30;;;19.20;99.90;;;;;;5061842;28;20111;-82
2023/09/04 08:08:11;;;;;;;3.58;2.40;;;19.30;99.90;;;;;;5068518;28;20024;-81
2023/09/04 08:10:39;;;;;;;4.30;2.60;;;19.30;99.90;;;;;;5078926;28;20036;-82
2023/09/04 08:13:16;;;;;;;2.75;2.28;;;19.40;99.90;;;;;;5091315;28;20032;-82
2023/09/04 08:15:42;;;;;;;4.03;2.17;;;19.40;99.90;;;;;;5081797;28;20027;-82
2023/09/04 08:18:08;;;;;;;4.03;2.22;;;19.50;99.90;;;;;;5068459;28;20526;-82
2023/09/04 08:20:35;;;;;;;2.78;2.20;;;19.50;99.90;;;;;;5068454;28;20036;-84
2023/09/04 08:23:01;;;;;;;4.18;2.78;;;19.50;99.90;;;;;;5072424;28;20048;-81
2023/09/04 08:25:27;;;;;;;5.18;2.80;;;19.60;99.90;;;;;;5083587;28;20059;-82
2023/09/04 08:27:52;;;;;;;4.10;2.55;;;19.60;99.90;;;;;;5071244;28;20376;-86
2023/09/04 08:30:18;;;;;;;3.28;2.63;;;19.70;99.90;;;;;;5068972;28;20051;-82
2023/09/04 08:32:46;;;;;;;3.17;2.38;;;19.80;99.90;;;;;;5085130;28;20036;-82
2023/09/04 08:35:12;;;;;;;6.82;2.70;;;19.80;99.90;;;;;;5064153;28;20029;-82
2023/09/04 08:37:39;;;;;;;8.85;2.97;;;19.90;99.90;;;;;;5082246;28;20380;-82
2023/09/04 08:40:05;;;;;;;4.55;2.70;;;19.90;99.90;;;;;;5070536;28;20055;-82
2023/09/04 08:42:32;;;;;;;4.00;2.63;;;19.90;99.90;;;;;;5072521;28;20137;-82
2023/09/04 08:44:58;;;;;;;3.10;2.25;;;20.10;99.90;;;;;;5071374;28;20024;-82
2023/09/04 08:47:24;;;;;;;2.97;2.45;;;20.10;99.90;;;;;;5088611;28;20056;-83
2023/09/04 08:49:57;;;;;;;4.38;2.60;;;20.20;99.90;;;;;;5085309;28;20102;-89
2023/09/04 08:52:23;;;;;;;5.15;3.08;;;20.30;99.90;;;;;;5067313;28;20051;-83
2023/09/04 08:54:50;;;;;;;5.60;2.80;;;20.30;99.90;;;;;;5064622;28;20028;-82
2023/09/04 08:57:17;;;;;;;5.18;2.60;;;20.30;99.90;;;;;;5089361;28;20024;-82
2023/09/04 08:59:42;;;;;;;4.15;2.60;;;20.30;99.90;;;;;;5086338;28;20028;-85
2023/09/04 09:02:14;;;;;;;4.00;2.80;;;20.40;99.90;;;;;;5068031;28;20036;-83
2023/09/04 09:04:41;;;;;;;3.08;2.45;;;20.50;99.90;;;;;;5070473;28;20028;-82
2023/09/04 09:07:08;;;;;;;5.90;2.58;;;20.60;99.90;;;;;;5066865;28;20054;-82
2023/09/04 09:09:38;;;;;;;4.10;2.15;;;20.60;99.90;;;;;;5065588;28;20028;-83
2023/09/04 09:12:04;;;;;;;5.38;2.58;;;20.70;99.90;;;;;;5070553;28;20033;-81
2023/09/04 09:14:31;;;;;;;2.97;2.33;;;20.80;99.90;;;;;;5086873;28;20024;-81
2023/09/04 09:17:16;;;;;;;3.30;2.47;;;20.90;99.90;;;;;;5067320;28;20048;-82
2023/09/04 09:19:43;;;;;;;3.75;2.50;;;20.90;99.90;;;;;;5065849;28;20484;-82
2023/09/04 09:22:14;;;;;;;4.78;2.50;;;20.90;99.90;;;;;;5063977;28;20480;-83
2023/09/04 09:24:56;;;;;;;4.45;2.78;;;21.00;99.90;;;;;;5087340;28;20021;-80
2023/09/04 09:27:25;;;;;;;4.85;2.50;;;21.10;99.90;;;;;;5066373;28;20032;-79
2023/09/04 09:29:51;;;;;;;3.33;2.58;;;21.20;99.90;;;;;;5066060;28;20111;-82
2023/09/04 09:32:19;;;;;;;7.05;2.63;;;21.30;99.90;;;;;;5065104;28;20446;-82
2023/09/04 09:34:52;;;;;;;4.82;2.28;;;21.40;99.90;;;;;;5087365;28;20032;-82
2023/09/04 09:37:19;;;;;;;3.78;2.25;;;21.40;99.90;;;;;;5083991;28;20025;-82
2023/09/04 09:39:44;;;;;;;6.88;3.05;;;21.50;99.90;;;;;;5081611;28;20475;-81
2023/09/04 09:42:10;;;;;;;11.02;3.30;;;21.60;99.90;;;;;;5063781;28;20115;-78
2023/09/04 09:44:36;;;;;;;6.82;2.40;;;21.60;99.90;;;;;;5082777;28;20029;-81
2023/09/04 09:47:02;;;;;;;5.22;2.42;;;21.60;99.90;;;;;;5065658;28;20074;-83
2023/09/04 09:49:30;;;;;;;5.57;2.20;;;21.70;99.90;;;;;;5069485;28;20052;-81
2023/09/04 09:51:56;;;;;;;4.50;2.00;;;21.80;99.90;;;;;;5083634;28;20098;-89
2023/09/04 09:54:40;;;;;;;3.63;2.13;;;21.90;99.90;;;;;;5067911;28;20047;-80
2023/09/04 09:57:08;;;;;;;6.72;2.63;;;22.00;99.90;;;;;;5063384;28;20017;-80
2023/09/04 09:59:35;;;;;;;9.48;2.20;;;22.00;99.90;;;;;;5065021;28;20021;-80
2023/09/04 10:02:02;;;;;;;3.05;2.20;;;22.10;99.90;;;;;;5066924;28;20027;-80
2023/09/04 10:04:30;;;;;;;8.18;3.17;;;22.20;99.90;;;;;;5068362;28;20034;-82
2023/09/04 10:06:59;;;;;;;8.05;3.33;;;22.20;99.90;;;;;;5064534;28;20413;-88
2023/09/04 10:09:27;;;;;;;4.32;2.50;;;22.30;99.90;;;;;;5062873;28;20466;-80
2023/09/04 10:12:11;;;;;;;4.00;2.35;;;22.40;99.90;;;;;;5068084;28;20051;-86
2023/09/04 10:14:42;;;;;;;3.58;2.30;;;22.40;99.90;;;;;;5067436;28;20028;-80
2023/09/04 10:17:17;;;;;;;2.33;2.03;;;22.50;99.90;;;;;;5084470;28;20021;-80
2023/09/04 10:19:45;;;;;;;2.45;1.92;;;22.50;99.90;;;;;;5061728;28;20150;-79
2023/09/04 10:22:36;;;;;;;3.00;2.25;;;22.60;99.90;;;;;;5068845;28;20028;-81
2023/09/04 10:25:15;;;;;;;4.82;2.17;;;22.70;99.90;;;;;;5066973;28;20373;-82
2023/09/04 10:27:52;;;;;;;2.67;1.85;;;22.70;99.90;;;;;;5064113;28;20449;-81
2023/09/04 10:30:22;;;;;;;6.18;1.92;;;22.70;99.90;;;;;;5063870;28;20055;-85
2023/09/04 10:32:49;;;;;;;3.55;2.20;;;22.80;99.90;;;;;;5062394;28;20033;-81
2023/09/04 10:35:15;;;;;;;2.40;2.03;;;22.70;99.90;;;;;;5065775;28;20021;-82
2023/09/04 10:37:41;;;;;;;4.00;2.55;;;22.80;99.90;;;;;;5067422;28;20047;-81
2023/09/04 10:40:10;;;;;;;3.65;2.50;;;22.80;99.90;;;;;;5082079;28;20106;-82
2023/09/04 10:42:41;;;;;;;4.85;2.20;;;22.80;99.90;;;;;;5064752;28;20028;-83
2023/09/04 10:45:20;;;;;;;3.25;2.35;;;22.80;99.90;;;;;;5064508;28;20092;-82
2023/09/04 10:47:48;;;;;;;3.80;1.80;;;23.00;99.90;;;;;;5064556;28;20031;-82
2023/09/04 10:50:37;;;;;;;3.88;1.98;;;23.10;99.90;;;;;;5079544;28;20045;-83
2023/09/04 10:53:04;;;;;;;4.55;2.30;;;23.10;99.90;;;;;;5080122;28;20077;-83
2023/09/04 10:55:31;;;;;;;6.85;2.35;;;23.20;99.90;;;;;;5081676;28;20031;-82
2023/09/04 10:57:59;;;;;;;2.92;1.98;;;23.30;99.90;;;;;;5087669;28;20024;-88
2023/09/04 11:00:38;;;;;;;4.00;1.67;;;23.40;99.90;;;;;;5063076;28;20154;-82
2023/09/04 11:03:24;;;;;;;2.63;2.00;;;23.40;99.90;;;;;;5082132;28;20028;-82
2023/09/04 11:06:02;;;;;;;3.67;2.20;;;23.50;99.90;;;;;;5062560;28;20388;-83
2023/09/04 11:08:32;;;;;;;2.47;1.90;;;23.50;99.90;;;;;;5062957;28;20046;-82
2023/09/04 11:11:03;;;;;;;1.90;1.70;;;23.60;99.90;;;;;;5064269;28;20032;-87
2023/09/04 11:13:30;;;;;;;1.83;1.70;;;23.60;99.90;;;;;;5083976;28;20059;-82
2023/09/04 11:16:03;;;;;;;2.30;1.83;;;23.70;99.90;;;;;;5063824;28;20370;-81
2023/09/04 11:18:30;;;;;;;2.70;1.95;;;23.70;99.90;;;;;;5063030;28;20169;-86
2023/09/04 11:20:56;;;;;;;2.28;1.70;;;23.70;99.90;;;;;;5084351;28;20103;-83
2023/09/04 11:23:25;;;;;;;3.13;1.80;;;23.70;99.90;;;;;;5084222;28;20055;-82
2023/09/04 11:25:52;;;;;;;3.00;2.05;;;23.70;99.90;;;;;;5083007;28;20095;-81
2023/09/04 11:28:22;;;;;;;4.70;2.10;;;23.80;99.90;;;;;;5067696;28;20784;-81
2023/09/04 11:30:52;;;;;;;4.38;1.90;;;23.90;99.90;;;;;;5083223;28;20021;-82
2023/09/04 11:33:20;;;;;;;3.28;1.77;;;24.00;99.90;;;;;;5062828;28;20032;-85
2023/09/04 11:36:04;;;;;;;1.98;1.80;;;24.00;99.90;;;;;;5064268;28;20020;-81
2023/09/04 11:38:32;;;;;;;3.15;2.30;;;24.00;99.90;;;;;;5079678;28;20039;-81
2023/09/04 11:40:58;;;;;;;3.75;2.50;;;24.00;99.90;;;;;;5065776;28;20028;-80
2023/09/04 11:43:25;;;;;;;2.50;1.98;;;24.10;99.90;;;;;;5064382;28;20036;-81
2023/09/04 11:45:55;;;;;;;4.07;2.40;;;24.10;99.90;;;;;;5087324;28;20036;-81
2023/09/04 11:48:25;;;;;;;3.08;2.08;;;24.30;99.90;;;;;;5067842;28;20516;-80
2023/09/04 11:50:51;;;;;;;3.67;2.20;;;24.30;99.90;;;;;;5086795;28;20031;-80
2023/09/04 11:53:18;;;;;;;3.92;2.40;;;24.50;99.80;;;;;;5083194;28;20082;-80
2023/09/04 11:55:44;;;;;;;5.10;2.90;;;24.50;99.90;;;;;;5085546;28;20369;-80
2023/09/04 11:58:10;;;;;;;5.28;2.35;;;24.60;99.70;;;;;;5085386;28;20124;-80
2023/09/04 12:00:36;;;;;;;3.53;2.13;;;24.60;99.60;;;;;;5087905;28;20024;-80
2023/09/04 12:03:02;;;;;;;4.70;3.35;;;24.70;98.70;;;;;;5085310;28;20028;-85
2023/09/04 12:05:27;;;;;;;3.92;2.75;;;24.70;99.00;;;;;;5067848;28;20377;-80
2023/09/04 12:07:53;;;;;;;3.17;2.10;;;24.90;98.30;;;;;;5087246;28;20032;-81
2023/09/04 12:10:19;;;;;;;3.50;2.00;;;25.00;97.40;;;;;;5083172;28;20036;-80
2023/09/04 12:12:44;;;;;;;2.78;1.90;;;25.10;97.10;;;;;;5066281;28;20089;-80
2023/09/04 12:15:10;;;;;;;2.28;2.08;;;25.20;97.80;;;;;;5088807;28;20066;-82
2023/09/04 12:17:36;;;;;;;3.95;2.45;;;25.30;98.20;;;;;;5088624;28;20027;-79
2023/09/04 12:20:05;;;;;;;4.43;2.05;;;25.20;97.90;;;;;;5085132;28;20518;-84
2023/09/04 12:22:31;;;;;;;3.42;2.05;;;25.30;98.00;;;;;;5065105;28;20024;-80
2023/09/04 12:25:04;;;;;;;2.47;1.92;;;25.40;97.70;;;;;;5085326;28;20030;-83
2023/09/04 12:27:29;;;;;;;4.18;2.00;;;25.50;97.10;;;;;;5086146;28;20031;-80
2023/09/04 12:29:55;;;;;;;2.60;1.70;;;25.60;97.20;;;;;;5068190;28;20025;-80
2023/09/04 12:32:21;;;;;;;5.00;2.08;;;25.70;96.20;;;;;;5069882;28;20025;-79
2023/09/04 12:34:50;;;;;;;3.17;2.08;;;25.70;96.40;;;;;;5086794;28;20389;-80
2023/09/04 12:37:18;;;;;;;2.55;2.13;;;25.80;95.40;;;;;;5087507;28;20052;-79
2023/09/04 12:39:43;;;;;;;3.05;1.70;;;25.80;95.10;;;;;;5081867;28;20029;-80
2023/09/04 12:42:09;;;;;;;4.07;2.03;;;25.90;93.90;;;;;;5095581;28;20035;-80
2023/09/04 12:44:35;;;;;;;5.53;2.22;;;26.00;94.10;;;;;;5081839;28;20107;-80
2023/09/04 12:47:00;;;;;;;4.65;1.80;;;26.10;94.60;;;;;;5066548;28;20032;-80